createdAt,value
2022-09-14T00:01:47.324Z,8.13
2022-09-14T00:04:20.302Z,4.20
2022-09-14T00:06:49.544Z,7.87
2022-09-14T00:09:23.842Z,7.67
2022-09-14T00:11:52.177Z,5.40
2022-09-14T00:14:21.245Z,3.30
2022-09-14T00:16:49.717Z,6.87
2022-09-14T00:19:27.806Z,6.00
2022-09-14T00:21:59.676Z,8.80
2022-09-14T00:24:31.068Z,4.30
2022-09-14T00:26:58.952Z,6.80
2022-09-14T00:29:26.737Z,7.30
2022-09-14T00:31:54.385Z,5.40
2022-09-14T00:34:22.350Z,7.37
2022-09-14T00:36:52.935Z,7.50
2022-09-14T00:39:24.987Z,4.03
2022-09-14T00:41:54.711Z,6.80
2022-09-14T00:44:25.067Z,6.03
2022-09-14T00:46:58.991Z,3.50
2022-09-14T00:49:40.816Z,4.37
2022-09-14T00:52:26.565Z,5.07
2022-09-14T00:55:13.990Z,5.50
2022-09-14T00:57:54.142Z,3.47
2022-09-14T01:00:30.172Z,12.90
2022-09-14T01:02:58.507Z,4.97
2022-09-14T01:06:38.808Z,5.37
2022-09-14T01:10:34.705Z,8.17
2022-09-14T01:13:17.008Z,14.10
2022-09-14T01:16:49.184Z,7.87
2022-09-14T01:20:11.098Z,4.93
2022-09-14T01:23:30.088Z,12.13
2022-09-14T01:26:49.133Z,5.17
2022-09-14T01:29:51.524Z,5.57
2022-09-14T01:32:54.549Z,5.00
2022-09-14T01:35:57.508Z,8.13
2022-09-14T01:38:52.053Z,3.97
2022-09-14T01:41:30.332Z,7.40
2022-09-14T01:44:17.453Z,6.13
2022-09-14T01:46:57.384Z,4.57
2022-09-14T01:49:42.025Z,9.00
2022-09-14T01:52:25.648Z,4.97
2022-09-14T01:55:16.709Z,4.20
2022-09-14T01:58:18.690Z,5.97
2022-09-14T02:00:50.763Z,9.67
2022-09-14T02:03:35.124Z,8.23
2022-09-14T02:06:27.455Z,6.30
2022-09-14T02:08:55.908Z,9.27
2022-09-14T02:11:23.624Z,4.87
2022-09-14T02:13:51.458Z,6.47
2022-09-14T02:16:22.917Z,8.00
2022-09-14T02:18:51.076Z,7.70
2022-09-14T02:21:27.916Z,9.00
2022-09-14T02:23:56.965Z,5.40
2022-09-14T02:26:25.772Z,6.47
2022-09-14T02:28:56.155Z,4.20
2022-09-14T02:32:08.444Z,3.80
2022-09-14T02:35:19.035Z,5.20
2022-09-14T02:38:20.537Z,6.10
2022-09-14T02:41:37.285Z,6.17
2022-09-14T02:45:13.784Z,6.50
2022-09-14T02:48:41.576Z,6.43
2022-09-14T02:51:35.437Z,3.97
2022-09-14T02:54:17.939Z,9.53
2022-09-14T02:56:46.447Z,6.43
2022-09-14T02:59:14.275Z,4.23
2022-09-14T03:01:42.115Z,3.83
2022-09-14T03:04:11.496Z,8.57
2022-09-14T03:06:40.705Z,7.00
2022-09-14T03:09:09.401Z,4.03
2022-09-14T03:11:37.191Z,5.40
2022-09-14T03:14:04.729Z,3.93
2022-09-14T03:16:32.400Z,5.00
2022-09-14T03:19:00.501Z,5.53
2022-09-14T03:21:28.243Z,4.87
2022-09-14T03:23:57.871Z,5.63
2022-09-14T03:26:31.479Z,3.50
2022-09-14T03:29:00.269Z,4.97
2022-09-14T03:31:28.110Z,7.87
2022-09-14T03:34:00.704Z,4.07
2022-09-14T03:36:32.189Z,6.50
2022-09-14T03:39:02.053Z,4.43
2022-09-14T03:41:30.377Z,3.43
2022-09-14T03:43:58.499Z,3.77
2022-09-14T03:46:26.948Z,4.97
2022-09-14T03:48:56.391Z,5.70
2022-09-14T03:51:24.544Z,5.80
2022-09-14T03:53:52.461Z,4.00
2022-09-14T03:56:23.993Z,4.43
2022-09-14T03:58:52.568Z,6.03
2022-09-14T04:01:24.026Z,5.40
2022-09-14T04:03:52.275Z,12.73
2022-09-14T04:06:20.525Z,5.00
2022-09-14T04:08:48.801Z,6.80
2022-09-14T04:11:25.384Z,10.70
2022-09-14T04:13:53.850Z,3.87
2022-09-14T04:16:22.743Z,6.83
2022-09-14T04:18:50.535Z,4.57
2022-09-14T04:21:24.747Z,6.50
2022-09-14T04:24:15.018Z,10.60
2022-09-14T04:26:46.122Z,8.47
2022-09-14T04:29:14.715Z,5.10
2022-09-14T04:31:42.978Z,4.83
2022-09-14T04:34:15.745Z,8.63
2022-09-14T04:36:43.796Z,6.73
2022-09-14T04:39:14.134Z,7.90
2022-09-14T04:41:41.808Z,9.27
2022-09-14T04:44:09.629Z,3.57
2022-09-14T04:46:46.485Z,5.70
2022-09-14T04:49:19.013Z,6.03
2022-09-14T04:51:46.907Z,6.93
2022-09-14T04:54:18.437Z,9.03
2022-09-14T04:56:46.976Z,5.73
2022-09-14T04:59:15.570Z,4.30
2022-09-14T05:01:48.010Z,3.83
2022-09-14T05:04:17.034Z,7.90
2022-09-14T05:06:45.182Z,7.30
2022-09-14T05:09:19.108Z,4.83
2022-09-14T05:11:49.630Z,5.00
2022-09-14T05:14:17.226Z,3.90
2022-09-14T05:16:45.783Z,8.20
2022-09-14T05:19:18.426Z,6.70
2022-09-14T05:21:47.418Z,4.53
2022-09-14T05:24:19.397Z,7.57
2022-09-14T05:26:48.172Z,9.37
2022-09-14T05:29:19.226Z,4.87
2022-09-14T05:31:47.976Z,6.90
2022-09-14T05:34:15.980Z,4.23
2022-09-14T05:36:45.625Z,5.30
2022-09-14T05:39:13.404Z,8.70
2022-09-14T05:41:41.361Z,10.33
2022-09-14T05:44:09.782Z,7.10
2022-09-14T05:46:38.498Z,7.70
2022-09-14T05:49:06.404Z,8.20
2022-09-14T05:51:34.044Z,9.03
2022-09-14T05:54:01.824Z,7.60
2022-09-14T05:56:31.983Z,14.17
2022-09-14T05:59:00.515Z,7.83
2022-09-14T06:01:33.074Z,10.13
2022-09-14T06:04:03.738Z,7.03
2022-09-14T06:06:33.879Z,10.17
2022-09-14T06:09:03.238Z,6.87
2022-09-14T06:11:36.522Z,10.60
2022-09-14T06:14:06.140Z,8.83
2022-09-14T06:16:35.004Z,7.53
2022-09-14T06:19:03.640Z,8.50
2022-09-14T06:21:35.395Z,7.93
2022-09-14T06:24:04.191Z,8.33
2022-09-14T06:26:32.297Z,6.93
2022-09-14T06:28:59.890Z,15.63
2022-09-14T06:31:27.680Z,15.77
2022-09-14T06:33:55.237Z,8.33
2022-09-14T06:36:29.293Z,6.90
2022-09-14T06:38:59.528Z,13.13
2022-09-14T06:41:30.701Z,6.23
2022-09-14T06:44:01.797Z,10.70
2022-09-14T06:46:35.526Z,7.77
2022-09-14T06:49:11.722Z,6.70
2022-09-14T06:51:46.600Z,10.77
2022-09-14T06:54:17.440Z,12.37
2022-09-14T06:56:47.219Z,6.40
2022-09-14T06:59:18.215Z,7.23
2022-09-14T07:01:46.683Z,6.10
2022-09-14T07:04:14.496Z,8.37
2022-09-14T07:06:49.867Z,14.57
2022-09-14T07:09:19.988Z,9.20
2022-09-14T07:11:48.016Z,12.23
2022-09-14T07:14:16.708Z,7.97
2022-09-14T07:16:44.348Z,7.37
2022-09-14T07:19:15.144Z,6.70
2022-09-14T07:21:43.614Z,10.40
2022-09-14T07:24:15.077Z,4.97
2022-09-14T07:26:43.678Z,4.97
2022-09-14T07:29:20.616Z,10.20
2022-09-14T07:31:56.786Z,9.10
2022-09-14T07:34:25.533Z,4.50
2022-09-14T07:36:53.097Z,6.43
2022-09-14T07:39:20.889Z,3.83
2022-09-14T07:41:49.101Z,7.70
2022-09-14T07:44:18.595Z,7.83
2022-09-14T07:46:47.748Z,11.07
2022-09-14T07:49:17.883Z,10.30
2022-09-14T07:51:49.039Z,10.70
2022-09-14T07:54:19.176Z,12.33
2022-09-14T07:56:46.852Z,7.63
2022-09-14T07:59:35.933Z,5.60
2022-09-14T08:02:07.758Z,7.07
2022-09-14T08:04:39.494Z,7.90
2022-09-14T08:07:07.927Z,5.10
2022-09-14T08:09:35.755Z,8.80
2022-09-14T08:12:05.658Z,6.80
2022-09-14T08:14:35.748Z,13.07
2022-09-14T08:17:03.932Z,8.87
2022-09-14T08:19:31.419Z,7.23
2022-09-14T08:21:59.027Z,9.00
2022-09-14T08:24:26.821Z,14.53
2022-09-14T08:26:54.987Z,6.80
2022-09-14T08:29:22.991Z,7.33
2022-09-14T08:31:52.074Z,8.30
2022-09-14T08:34:20.940Z,8.13
2022-09-14T08:36:48.773Z,8.77
2022-09-14T08:39:25.033Z,8.10
2022-09-14T08:42:00.744Z,4.70
2022-09-14T08:44:43.215Z,7.57
2022-09-14T08:47:18.722Z,5.40
2022-09-14T08:50:18.433Z,5.73
2022-09-14T08:52:55.242Z,6.83
2022-09-14T08:55:53.183Z,8.67
2022-09-14T08:58:50.581Z,7.57
2022-09-14T09:02:05.530Z,6.90
2022-09-14T09:04:59.595Z,12.47
2022-09-14T09:08:30.376Z,6.40
2022-09-14T09:11:01.816Z,9.27
2022-09-14T09:13:40.255Z,5.23
2022-09-14T09:16:15.694Z,7.10
2022-09-14T09:19:11.833Z,4.33
2022-09-14T09:21:48.302Z,4.63
2022-09-14T09:24:39.757Z,7.40
2022-09-14T09:27:16.700Z,8.87
2022-09-14T09:29:44.757Z,5.60
2022-09-14T09:32:26.129Z,10.70
2022-09-14T09:35:25.105Z,7.50
2022-09-14T09:38:24.807Z,4.17
2022-09-14T09:41:22.527Z,5.80
2022-09-14T09:44:10.572Z,6.17
2022-09-14T09:46:59.885Z,7.83
2022-09-14T09:49:40.156Z,5.30
2022-09-14T09:52:17.028Z,5.53
2022-09-14T09:54:54.502Z,4.97
2022-09-14T09:57:37.758Z,4.80
2022-09-14T10:00:29.874Z,7.70
2022-09-14T10:03:14.814Z,6.20
2022-09-14T10:05:42.584Z,6.80
2022-09-14T10:08:19.200Z,8.13
2022-09-14T10:10:47.512Z,8.33
2022-09-14T10:13:41.098Z,6.17
2022-09-14T10:16:20.878Z,6.13
2022-09-14T10:18:53.559Z,5.73
2022-09-14T10:21:25.884Z,5.87
2022-09-14T10:24:22.259Z,4.10
2022-09-14T10:26:49.901Z,7.20
2022-09-14T10:29:44.630Z,11.47
2022-09-14T10:32:25.629Z,6.57
2022-09-14T10:34:53.665Z,5.67
2022-09-14T10:37:58.188Z,6.53
2022-09-14T10:40:44.370Z,6.23
2022-09-14T10:43:48.837Z,7.17
2022-09-14T10:46:37.863Z,6.03
2022-09-14T10:50:27.534Z,12.70
2022-09-14T10:53:20.237Z,12.63
2022-09-14T10:56:47.052Z,9.60
2022-09-14T10:59:20.884Z,11.60
2022-09-14T11:02:50.254Z,8.50
2022-09-14T11:05:39.954Z,14.40
2022-09-14T11:09:21.873Z,9.00
2022-09-14T11:12:40.027Z,13.77
2022-09-14T11:15:58.556Z,9.50
2022-09-14T11:18:56.396Z,10.53
2022-09-14T11:21:53.831Z,14.60
2022-09-14T11:25:09.088Z,8.33
2022-09-14T11:28:34.666Z,8.83
2022-09-14T11:32:19.931Z,8.20
2022-09-14T11:35:16.216Z,11.10
2022-09-14T11:38:26.339Z,10.10
2022-09-14T11:42:11.193Z,7.07
2022-09-14T11:44:47.841Z,6.87
2022-09-14T11:47:20.599Z,5.20
2022-09-14T11:50:14.884Z,4.80
2022-09-14T11:52:43.186Z,4.60
2022-09-14T11:55:20.052Z,5.63
2022-09-14T11:57:49.439Z,5.07
2022-09-14T12:00:30.635Z,5.87
2022-09-14T12:04:03.990Z,4.20
2022-09-14T12:06:37.895Z,8.37
2022-09-14T12:09:17.867Z,5.47
2022-09-14T12:11:59.972Z,5.93
2022-09-14T12:14:34.637Z,9.70
2022-09-14T12:17:40.315Z,4.83
2022-09-14T12:20:43.626Z,5.63
2022-09-14T12:23:38.146Z,3.03
2022-09-14T12:26:12.749Z,3.30
2022-09-14T12:28:56.249Z,3.13
2022-09-14T12:32:05.422Z,7.13
2022-09-14T12:34:34.621Z,3.57
2022-09-14T12:37:31.648Z,2.93
2022-09-14T12:40:21.203Z,3.30
2022-09-14T12:42:49.299Z,5.33
2022-09-14T12:46:00.016Z,6.70
2022-09-14T12:48:48.948Z,5.57
2022-09-14T12:51:46.491Z,2.20
2022-09-14T12:55:18.692Z,5.07
2022-09-14T12:58:45.506Z,3.50
2022-09-14T13:01:50.073Z,6.33
2022-09-14T13:04:36.435Z,4.30
2022-09-14T13:07:19.002Z,3.80
2022-09-14T13:09:56.452Z,4.37
2022-09-14T13:12:44.901Z,3.93
2022-09-14T13:15:37.447Z,5.23
2022-09-14T13:18:36.717Z,5.20
2022-09-14T13:21:25.052Z,4.73
2022-09-14T13:23:52.956Z,5.30
2022-09-14T13:26:31.684Z,5.33
2022-09-14T13:29:02.498Z,4.80
2022-09-14T13:31:39.693Z,5.37
2022-09-14T13:34:07.504Z,5.13
2022-09-14T13:36:44.395Z,3.63
2022-09-14T13:39:42.014Z,4.73
2022-09-14T13:42:11.023Z,5.33
2022-09-14T13:44:46.803Z,6.83
2022-09-14T13:47:25.043Z,7.13
2022-09-14T13:49:55.945Z,4.20
2022-09-14T13:52:33.954Z,7.60
2022-09-14T13:55:43.001Z,6.07
2022-09-14T13:58:22.238Z,5.87
2022-09-14T14:01:04.528Z,4.83
2022-09-14T14:03:47.598Z,8.07
2022-09-14T14:06:34.871Z,7.20
2022-09-14T14:09:11.318Z,7.27
2022-09-14T14:11:55.212Z,9.67
2022-09-14T14:14:31.093Z,6.63
2022-09-14T14:17:13.665Z,5.27
2022-09-14T14:19:43.753Z,7.30
2022-09-14T14:22:34.001Z,6.30
2022-09-14T14:25:29.304Z,5.90
2022-09-14T14:28:06.054Z,4.63
2022-09-14T14:30:41.646Z,5.40
2022-09-14T14:33:19.095Z,6.73
2022-09-14T14:35:51.945Z,6.47
2022-09-14T14:38:23.447Z,3.90
2022-09-14T14:40:55.861Z,6.73
2022-09-14T14:43:27.457Z,6.30
2022-09-14T14:46:01.876Z,4.03
2022-09-14T14:48:31.614Z,2.87
2022-09-14T14:50:59.403Z,3.73
2022-09-14T14:53:27.320Z,3.97
2022-09-14T14:55:55.603Z,4.87
2022-09-14T14:58:26.343Z,5.20
2022-09-14T15:00:54.760Z,5.53
2022-09-14T15:03:23.070Z,4.70
2022-09-14T15:05:50.817Z,4.67
2022-09-14T15:08:20.201Z,3.87
2022-09-14T15:10:48.889Z,4.70
2022-09-14T15:13:16.655Z,7.80
2022-09-14T15:15:45.041Z,4.17
2022-09-14T15:18:12.680Z,5.13
2022-09-14T15:20:40.397Z,7.30
2022-09-14T15:23:10.012Z,4.03
2022-09-14T15:25:38.100Z,8.80
2022-09-14T15:28:05.816Z,6.77
2022-09-14T15:30:33.353Z,5.33
2022-09-14T15:33:00.968Z,4.80
2022-09-14T15:35:28.628Z,4.17
2022-09-14T15:37:56.233Z,9.67
2022-09-14T15:40:23.802Z,8.60
2022-09-14T15:42:51.749Z,3.53
2022-09-14T15:45:19.610Z,7.90
2022-09-14T15:47:47.405Z,5.53
2022-09-14T15:50:16.289Z,7.13
2022-09-14T15:52:43.973Z,4.30
2022-09-14T15:55:13.311Z,5.47
2022-09-14T15:57:40.958Z,6.30
2022-09-14T16:00:14.338Z,5.20
2022-09-14T16:02:42.957Z,6.23
2022-09-14T16:05:11.022Z,5.83
2022-09-14T16:07:38.704Z,6.07
2022-09-14T16:10:07.962Z,6.57
2022-09-14T16:12:35.535Z,9.57
2022-09-14T16:15:03.409Z,5.77
2022-09-14T16:17:31.295Z,6.33
2022-09-14T16:19:58.886Z,5.53
2022-09-14T16:22:27.321Z,8.13
2022-09-14T16:24:54.853Z,7.03
2022-09-14T16:27:23.660Z,5.90
2022-09-14T16:29:51.371Z,6.43
2022-09-14T16:32:18.951Z,3.30
2022-09-14T16:34:46.576Z,5.73
2022-09-14T16:37:15.705Z,5.63
2022-09-14T16:39:43.396Z,6.10
2022-09-14T16:42:11.003Z,3.60
2022-09-14T16:44:38.510Z,5.87
2022-09-14T16:47:06.576Z,3.10
2022-09-14T16:49:34.182Z,4.03
2022-09-14T16:52:02.150Z,3.30
2022-09-14T16:54:31.747Z,3.60
2022-09-14T16:57:01.151Z,3.37
2022-09-14T16:59:28.884Z,4.97
2022-09-14T17:01:58.040Z,6.63
2022-09-14T17:04:25.877Z,4.03
2022-09-14T17:06:55.179Z,7.50
2022-09-14T17:09:29.423Z,2.70
2022-09-14T17:11:59.164Z,6.37
2022-09-14T17:14:33.140Z,4.93
2022-09-14T17:17:01.511Z,4.90
2022-09-14T17:19:29.570Z,5.60
2022-09-14T17:21:57.546Z,4.67
2022-09-14T17:24:26.059Z,4.10
2022-09-14T17:26:53.725Z,4.47
2022-09-14T17:29:21.385Z,9.23
2022-09-14T17:31:57.650Z,5.57
2022-09-14T17:34:25.651Z,7.90
2022-09-14T17:36:53.270Z,9.97
2022-09-14T17:39:20.852Z,10.17
2022-09-14T17:41:48.503Z,10.33
2022-09-14T17:44:16.173Z,10.90
2022-09-14T17:46:52.235Z,12.30
2022-09-14T17:49:23.160Z,9.00
2022-09-14T17:51:51.685Z,10.90
2022-09-14T17:54:21.423Z,12.50
2022-09-14T17:56:49.718Z,9.67
2022-09-14T17:59:20.978Z,12.70
2022-09-14T18:01:50.316Z,13.10
2022-09-14T18:04:19.012Z,10.93
2022-09-14T18:06:50.125Z,10.40
2022-09-14T18:09:24.438Z,13.60
2022-09-14T18:11:57.335Z,15.63
2022-09-14T18:14:26.175Z,15.67
2022-09-14T18:16:53.781Z,14.10
2022-09-14T18:19:21.795Z,18.77
2022-09-14T18:21:52.559Z,14.10
2022-09-14T18:24:21.821Z,18.60
2022-09-14T18:26:50.005Z,16.13
2022-09-14T18:29:23.196Z,22.00
2022-09-14T18:31:54.759Z,12.77
2022-09-14T18:34:25.352Z,21.33
2022-09-14T18:36:53.054Z,16.63
2022-09-14T18:39:21.331Z,17.07
2022-09-14T18:41:56.278Z,18.23
2022-09-14T18:44:24.355Z,17.03
2022-09-14T18:46:52.356Z,17.23
2022-09-14T18:49:20.574Z,21.93
2022-09-14T18:51:48.213Z,22.83
2022-09-14T18:54:27.399Z,22.33
2022-09-14T18:56:59.820Z,27.23
2022-09-14T18:59:31.135Z,18.47
2022-09-14T19:02:01.691Z,20.00
2022-09-14T19:04:30.432Z,19.13
2022-09-14T19:06:58.872Z,19.33
2022-09-14T19:09:26.830Z,18.67
2022-09-14T19:11:54.450Z,19.57
2022-09-14T19:14:31.371Z,18.17
2022-09-14T19:17:08.850Z,21.07
2022-09-14T19:19:40.683Z,19.97
2022-09-14T19:22:09.098Z,21.90
2022-09-14T19:24:36.670Z,20.10
2022-09-14T19:27:08.636Z,18.63
2022-09-14T19:29:36.635Z,24.40
2022-09-14T19:32:04.407Z,23.13
2022-09-14T19:34:32.049Z,19.80
2022-09-14T19:36:59.580Z,22.37
2022-09-14T19:39:27.310Z,20.63
2022-09-14T19:41:55.159Z,20.93
2022-09-14T19:44:23.328Z,23.73
2022-09-14T19:46:51.285Z,17.23
2022-09-14T19:49:25.217Z,22.10
2022-09-14T19:51:54.222Z,26.37
2022-09-14T19:54:22.401Z,23.53
2022-09-14T19:56:50.396Z,20.57
2022-09-14T19:59:18.175Z,22.00
2022-09-14T20:01:46.792Z,26.87
2022-09-14T20:04:15.860Z,21.40
2022-09-14T20:06:47.692Z,26.07
2022-09-14T20:09:23.560Z,26.47
2022-09-14T20:11:53.464Z,22.23
2022-09-14T20:14:25.712Z,27.10
2022-09-14T20:16:59.224Z,20.93
2022-09-14T20:19:31.086Z,24.27
2022-09-14T20:21:59.037Z,27.03
2022-09-14T20:24:31.135Z,23.03
2022-09-14T20:27:02.414Z,29.77
2022-09-14T20:29:35.293Z,24.23
2022-09-14T20:32:05.911Z,24.80
2022-09-14T20:34:37.102Z,27.70
2022-09-14T20:37:05.355Z,22.90
2022-09-14T20:39:38.177Z,27.13
2022-09-14T20:42:06.535Z,23.73
2022-09-14T20:44:34.129Z,29.67
2022-09-14T20:47:01.790Z,29.03
2022-09-14T20:49:29.647Z,26.03
2022-09-14T20:52:01.202Z,38.10
2022-09-14T20:54:29.338Z,31.43
2022-09-14T20:57:01.005Z,34.73
2022-09-14T20:59:31.438Z,35.73
2022-09-14T21:02:03.482Z,29.93
2022-09-14T21:04:36.036Z,34.03
2022-09-14T21:07:03.663Z,34.40
2022-09-14T21:09:32.088Z,38.23
2022-09-14T21:12:00.190Z,40.50
2022-09-14T21:14:28.625Z,39.73
2022-09-14T21:16:57.022Z,45.67
2022-09-14T21:19:29.498Z,42.67
2022-09-14T21:21:57.866Z,38.70
2022-09-14T21:24:26.139Z,42.20
2022-09-14T21:26:53.776Z,37.03
2022-09-14T21:29:24.748Z,39.50
2022-09-14T21:31:53.443Z,43.10
2022-09-14T21:34:21.973Z,49.87
2022-09-14T21:36:52.060Z,56.67
2022-09-14T21:39:25.112Z,44.67
2022-09-14T21:41:59.046Z,50.37
2022-09-14T21:44:36.080Z,49.93
2022-09-14T21:47:05.022Z,49.63
2022-09-14T21:49:33.068Z,47.83
2022-09-14T21:52:00.774Z,53.50
2022-09-14T21:54:28.670Z,47.80
2022-09-14T21:56:56.652Z,53.13
2022-09-14T21:59:24.921Z,54.47
2022-09-14T22:01:52.899Z,53.20
2022-09-14T22:04:25.326Z,54.00
2022-09-14T22:06:54.440Z,53.17
2022-09-14T22:09:28.964Z,55.27
2022-09-14T22:11:57.958Z,59.23
2022-09-14T22:14:29.773Z,56.30
2022-09-14T22:16:57.966Z,61.50
2022-09-14T22:19:31.587Z,61.77
2022-09-14T22:21:59.616Z,54.67
2022-09-14T22:24:38.979Z,57.60
2022-09-14T22:27:10.507Z,55.83
2022-09-14T22:29:40.996Z,65.80
2022-09-14T22:32:11.921Z,57.27
2022-09-14T22:34:41.935Z,65.50
2022-09-14T22:37:09.986Z,63.63
2022-09-14T22:39:37.588Z,61.03
2022-09-14T22:42:06.184Z,65.97
2022-09-14T22:44:33.718Z,58.53
2022-09-14T22:47:01.248Z,66.90
2022-09-14T22:49:28.847Z,58.23
2022-09-14T22:51:56.499Z,66.40
2022-09-14T22:54:24.718Z,71.13
2022-09-14T22:56:52.284Z,57.83
2022-09-14T22:59:19.784Z,70.53
2022-09-14T23:01:47.359Z,67.83
2022-09-14T23:04:15.391Z,72.90
2022-09-14T23:06:47.792Z,66.60
2022-09-14T23:09:21.658Z,63.77
2022-09-14T23:11:49.711Z,64.07
2022-09-14T23:14:17.887Z,71.17
2022-09-14T23:16:46.044Z,68.23
2022-09-14T23:19:18.826Z,62.07
2022-09-14T23:21:47.546Z,68.47
2022-09-14T23:24:16.295Z,78.30
2022-09-14T23:26:44.259Z,72.23
2022-09-14T23:29:17.371Z,71.50
2022-09-14T23:31:45.773Z,74.33
2022-09-14T23:34:14.331Z,83.03
2022-09-14T23:36:42.204Z,75.40
2022-09-14T23:39:09.865Z,77.93
2022-09-14T23:41:38.011Z,77.40
2022-09-14T23:44:05.580Z,74.60
2022-09-14T23:46:33.300Z,79.87
2022-09-14T23:49:01.359Z,69.20
2022-09-14T23:51:28.892Z,80.27
2022-09-14T23:53:56.460Z,76.80
2022-09-14T23:56:24.791Z,76.77
2022-09-14T23:58:52.409Z,72.17
